Terminal Aerodrome Forecast
Issued by NWS

Home | Current Version | Previous Version | Text Only | Print | Product List | Glossary On
Versions: 1 2 3 4 5 6 7 8 9 10 11 12 13 14 15 16 17 18 19 20
113
FTUS45 KABQ 181125
TAFAEG
TAF
KAEG 181125Z 1812/1912 VRB05KT P6SM BKN045
     FM181900 28014KT P6SM OVC050
     FM190200 29009KT P6SM FEW070=

USA.gov is the U.S. government's official web portal to all federal, state and local government web resources and services.